Time;durP1;ratioP1;P1;durP2;ratioP2;P2;SDS_P1;SDS_P2;PMS_P1;PMS_P2;Temp;Humidity;BMP_temperature;BMP_pressure;BME280_temperature;BME280_humidity;BME280_pressure;Samples;Min_cycle;Max_cycle;Signal;HPM_P1;HPM_P2
2021/08/01 00:00:26;;;;;;;33.65;15.43;;;;;;;13.20;100.00;100992.50;5225964;28;20072;-86
2021/08/01 00:02:57;;;;;;;31.35;14.95;;;;;;;13.25;100.00;100991.13;5220540;28;20018;-84
2021/08/01 00:05:27;;;;;;;33.65;14.27;;;;;;;13.24;100.00;100984.06;5219488;28;20028;-84
2021/08/01 00:07:58;;;;;;;35.33;15.35;;;;;;;13.26;100.00;100988.28;5215781;28;20018;-84
2021/08/01 00:10:29;;;;;;;34.80;14.93;;;;;;;13.31;100.00;100987.75;5226767;28;20046;-85
2021/08/01 00:13:00;;;;;;;35.80;13.40;;;;;;;13.30;100.00;100983.34;5225978;28;20063;-84
2021/08/01 00:15:30;;;;;;;27.25;13.52;;;;;;;13.34;100.00;100984.66;5227412;28;20390;-84
2021/08/01 00:18:02;;;;;;;28.73;13.05;;;;;;;13.35;100.00;100987.16;5226750;28;20068;-85
2021/08/01 00:20:32;;;;;;;37.15;15.07;;;;;;;13.35;100.00;100978.25;5227066;28;20393;-84
2021/08/01 00:23:03;;;;;;;26.85;13.38;;;;;;;13.40;100.00;100981.25;5225564;28;20053;-85
2021/08/01 00:25:33;;;;;;;30.55;11.98;;;;;;;13.42;100.00;100973.84;5226882;28;20051;-84
2021/08/01 00:28:04;;;;;;;27.83;11.55;;;;;;;13.41;100.00;100969.47;5227475;28;20030;-85
2021/08/01 00:30:34;;;;;;;29.52;12.50;;;;;;;13.43;100.00;100968.25;5226287;28;20064;-84
2021/08/01 00:33:05;;;;;;;24.45;11.40;;;;;;;13.43;100.00;100964.72;5209498;28;20052;-84
2021/08/01 00:35:35;;;;;;;27.20;11.90;;;;;;;13.43;100.00;100975.50;5209644;28;20425;-84
2021/08/01 00:38:07;;;;;;;30.60;11.75;;;;;;;13.42;100.00;100965.75;5209557;28;20360;-83
2021/08/01 00:40:38;;;;;;;23.38;10.52;;;;;;;13.41;100.00;100972.16;5209794;28;20395;-84
2021/08/01 00:43:08;;;;;;;28.63;11.57;;;;;;;13.42;100.00;100969.28;5209243;28;20116;-84
2021/08/01 00:45:39;;;;;;;23.48;11.15;;;;;;;13.43;100.00;100978.19;5210042;28;20021;-84
2021/08/01 00:48:12;;;;;;;25.85;11.10;;;;;;;13.42;100.00;100966.59;5209440;28;20068;-84
2021/08/01 00:50:43;;;;;;;21.67;10.50;;;;;;;13.39;100.00;100966.94;5209843;28;20079;-84
2021/08/01 00:53:14;;;;;;;25.70;11.07;;;;;;;13.37;100.00;100963.59;5209792;28;20489;-84
2021/08/01 00:55:44;;;;;;;24.27;10.68;;;;;;;13.34;100.00;100957.72;5208971;28;20478;-84
2021/08/01 00:58:15;;;;;;;22.05;10.63;;;;;;;13.34;100.00;100957.72;5209832;28;20425;-84
2021/08/01 01:03:40;;;;;;;27.38;11.25;;;;;;;13.30;100.00;100956.41;5197758;28;20076;-83
2021/08/01 01:06:18;;;;;;;21.98;11.07;;;;;;;13.30;100.00;100961.78;5191594;28;20034;-84
2021/08/01 01:08:58;;;;;;;39.35;10.65;;;;;;;13.33;100.00;100956.91;5204864;28;20627;-83
2021/08/01 01:11:35;;;;;;;22.33;10.43;;;;;;;13.32;100.00;100966.00;5209364;28;20186;-83
2021/08/01 01:14:09;;;;;;;30.77;11.75;;;;;;;13.30;100.00;100965.31;5209418;28;20045;-83
2021/08/01 01:16:44;;;;;;;23.80;10.50;;;;;;;13.31;100.00;100960.81;5209316;28;20036;-84
2021/08/01 01:19:33;;;;;;;25.63;10.68;;;;;;;13.31;100.00;100967.03;5205976;28;20033;-84
2021/08/01 01:22:12;;;;;;;32.30;11.00;;;;;;;13.35;100.00;100956.69;5205055;28;20053;-84
2021/08/01 01:24:44;;;;;;;21.45;10.15;;;;;;;13.32;100.00;100962.47;5205067;28;20029;-84
2021/08/01 01:27:28;;;;;;;25.35;10.82;;;;;;;13.31;100.00;100960.81;5192112;28;20097;-84
2021/08/01 01:30:02;;;;;;;26.20;10.98;;;;;;;13.31;100.00;100956.25;5204590;28;20030;-84
2021/08/01 01:32:38;;;;;;;27.80;10.30;;;;;;;13.28;100.00;100964.69;5204893;28;20033;-84
2021/08/01 01:35:15;;;;;;;37.65;10.88;;;;;;;13.26;100.00;100960.50;5204686;28;20056;-84
2021/08/01 01:37:48;;;;;;;32.35;10.50;;;;;;;13.25;100.00;100958.81;5204771;28;20100;-84
2021/08/01 01:40:21;;;;;;;27.70;10.37;;;;;;;13.25;100.00;100962.34;5204347;28;20033;-83
2021/08/01 01:42:55;;;;;;;21.27;10.30;;;;;;;13.24;100.00;100946.38;5204692;28;20276;-84
2021/08/01 01:45:28;;;;;;;34.03;11.68;;;;;;;13.24;100.00;100949.06;5204693;28;20109;-84
2021/08/01 01:47:59;;;;;;;22.08;11.45;;;;;;;13.21;100.00;100953.81;5204504;28;20021;-84
2021/08/01 01:50:32;;;;;;;37.40;9.80;;;;;;;13.25;100.00;100946.16;5204452;28;20032;-84
2021/08/01 01:53:04;;;;;;;23.70;10.77;;;;;;;13.21;100.00;100944.84;5204305;28;20032;-84
2021/08/01 01:55:38;;;;;;;30.50;10.23;;;;;;;13.18;100.00;100946.03;5205497;28;20026;-84
2021/08/01 01:58:11;;;;;;;21.98;10.23;;;;;;;13.19;100.00;100947.72;5206153;28;20040;-84
2021/08/01 02:00:44;;;;;;;28.63;10.38;;;;;;;13.15;100.00;100953.63;5205678;28;20049;-84
2021/08/01 02:03:15;;;;;;;25.83;9.57;;;;;;;13.14;100.00;100954.66;5205415;28;20025;-83
2021/08/01 02:05:46;;;;;;;25.00;9.93;;;;;;;13.14;100.00;100952.78;5200935;28;20060;-83
2021/08/01 02:08:16;;;;;;;24.05;9.75;;;;;;;13.11;100.00;100953.19;5196989;28;20125;-84
2021/08/01 02:10:54;;;;;;;24.25;9.63;;;;;;;13.07;100.00;100951.84;5205435;28;20509;-84
2021/08/01 02:13:30;;;;;;;24.98;9.93;;;;;;;13.06;100.00;100952.03;5205313;28;20455;-84
2021/08/01 02:16:03;;;;;;;22.90;10.20;;;;;;;13.02;100.00;100948.88;5205384;28;20034;-84
2021/08/01 02:18:49;;;;;;;23.15;10.32;;;;;;;13.01;100.00;100949.06;5205513;28;20021;-84
2021/08/01 02:21:21;;;;;;;21.40;10.15;;;;;;;12.97;100.00;100951.25;5205721;28;20053;-84
2021/08/01 02:23:53;;;;;;;25.08;9.93;;;;;;;12.93;100.00;100953.47;5204817;28;20057;-84
2021/08/01 02:26:24;;;;;;;35.97;10.63;;;;;;;12.95;100.00;100950.56;5203685;28;20112;-84
2021/08/01 02:28:56;;;;;;;27.08;10.10;;;;;;;12.95;100.00;100939.81;5204217;28;20120;-83
2021/08/01 02:31:27;;;;;;;28.75;10.52;;;;;;;13.01;100.00;100949.06;5205623;28;20049;-84
2021/08/01 02:33:58;;;;;;;25.00;10.13;;;;;;;13.07;100.00;100954.53;5207086;28;20032;-84
2021/08/01 02:36:29;;;;;;;35.83;11.27;;;;;;;13.12;100.00;100951.31;5206415;28;20033;-84
2021/08/01 02:39:00;;;;;;;35.72;10.48;;;;;;;13.16;100.00;100947.25;5206959;28;20025;-84
2021/08/01 02:41:36;;;;;;;26.23;10.48;;;;;;;13.21;100.00;100950.25;5206753;28;20375;-84
2021/08/01 02:44:11;;;;;;;29.92;10.00;;;;;;;13.30;100.00;100951.84;5207206;28;20022;-84
2021/08/01 02:46:44;;;;;;;39.17;12.13;;;;;;;13.34;100.00;100946.94;5209045;28;20025;-84
2021/08/01 02:49:18;;;;;;;32.15;9.82;;;;;;;13.35;100.00;100946.75;5210632;28;20084;-84
2021/08/01 02:51:52;;;;;;;47.10;11.17;;;;;;;13.38;100.00;100949.09;5211040;28;20120;-84
2021/08/01 02:54:24;;;;;;;37.60;12.15;;;;;;;13.41;100.00;100947.91;5211087;28;20057;-84
2021/08/01 02:56:58;;;;;;;33.47;11.73;;;;;;;13.42;100.00;100950.41;5193680;28;20021;-84
2021/08/01 02:59:31;;;;;;;37.28;10.65;;;;;;;13.45;100.00;100959.97;5211034;28;20068;-84
2021/08/01 03:02:02;;;;;;;34.20;11.52;;;;;;;13.45;100.00;100959.97;5210971;28;20538;-84
2021/08/01 03:04:39;;;;;;;40.08;11.23;;;;;;;13.48;100.00;100948.84;5210883;28;20113;-84
2021/08/01 03:07:12;;;;;;;37.40;12.40;;;;;;;13.54;100.00;100945.41;5197315;28;20022;-84
2021/08/01 03:09:42;;;;;;;35.20;10.98;;;;;;;13.54;100.00;100949.97;5211167;28;20025;-84
2021/08/01 03:12:15;;;;;;;32.33;12.43;;;;;;;13.55;100.00;100949.78;5211166;28;20036;-84
2021/08/01 03:14:46;;;;;;;39.33;12.15;;;;;;;13.54;100.00;100950.81;5211293;28;20025;-84
2021/08/01 03:17:16;;;;;;;38.95;12.45;;;;;;;13.53;100.00;100951.81;5211032;28;20033;-84
2021/08/01 03:19:47;;;;;;;37.75;12.60;;;;;;;13.57;100.00;100950.44;5210215;28;20055;-84
2021/08/01 03:22:18;;;;;;;41.25;13.43;;;;;;;13.61;100.00;100945.53;5210602;28;20544;-84
2021/08/01 03:24:48;;;;;;;39.80;13.52;;;;;;;13.60;100.00;100943.84;5211143;28;20061;-84
2021/08/01 03:27:19;;;;;;;38.72;12.73;;;;;;;13.62;100.00;100955.28;5211015;28;20390;-84
2021/08/01 03:29:49;;;;;;;46.97;13.35;;;;;;;13.61;100.00;100949.06;5210129;28;20140;-84
2021/08/01 03:32:22;;;;;;;41.85;12.23;;;;;;;13.60;100.00;100955.44;5210433;28;20087;-84
2021/08/01 03:34:53;;;;;;;37.55;13.82;;;;;;;13.59;100.00;100953.78;5210491;28;20029;-84
2021/08/01 03:37:26;;;;;;;34.70;12.48;;;;;;;13.62;100.00;100952.59;5210598;28;20014;-84
2021/08/01 03:39:57;;;;;;;33.45;12.82;;;;;;;13.63;100.00;100960.50;5210175;28;20060;-84
2021/08/01 03:42:28;;;;;;;47.63;13.57;;;;;;;13.64;100.00;100958.63;5210880;28;20057;-84
2021/08/01 03:44:59;;;;;;;36.95;14.07;;;;;;;13.61;100.00;100959.00;5210245;28;20104;-84
2021/08/01 03:47:29;;;;;;;43.80;14.60;;;;;;;13.60;100.00;100949.22;5209883;28;20057;-84
2021/08/01 03:50:00;;;;;;;41.28;14.23;;;;;;;13.63;100.00;100948.88;5208123;28;20045;-84
2021/08/01 03:52:30;;;;;;;48.45;15.07;;;;;;;13.60;100.00;100954.63;5207198;28;20024;-84
2021/08/01 03:55:01;;;;;;;43.65;14.15;;;;;;;13.62;100.00;100947.22;5207257;28;20041;-84
2021/08/01 03:57:31;;;;;;;54.50;15.55;;;;;;;13.59;100.00;100943.00;5206938;28;20108;-84
2021/08/01 04:00:05;;;;;;;46.20;14.77;;;;;;;13.59;100.00;100947.56;5206760;28;20192;-84
2021/08/01 04:02:36;;;;;;;48.95;15.70;;;;;;;13.59;100.00;100943.00;5202993;28;20026;-84
2021/08/01 04:05:08;;;;;;;44.05;16.00;;;;;;;13.63;100.00;100951.56;5198872;28;20021;-84
2021/08/01 04:07:38;;;;;;;55.78;15.30;;;;;;;13.61;100.00;100945.53;5205929;28;20033;-84
2021/08/01 04:10:09;;;;;;;42.35;14.82;;;;;;;13.64;100.00;100955.94;5205864;28;20052;-84
2021/08/01 04:12:39;;;;;;;49.83;14.43;;;;;;;13.63;100.00;100960.50;5193412;28;20064;-84
2021/08/01 04:15:12;;;;;;;39.13;15.13;;;;;;;13.63;100.00;100955.09;5205213;28;20036;-84
2021/08/01 04:17:43;;;;;;;50.92;15.23;;;;;;;13.61;100.00;100951.75;5194842;28;20030;-84
2021/08/01 04:20:15;;;;;;;37.95;14.02;;;;;;;13.66;100.00;100952.03;5209004;28;20032;-84
2021/08/01 04:22:45;;;;;;;46.20;14.85;;;;;;;13.66;100.00;100960.13;5209387;28;20022;-84
2021/08/01 04:25:16;;;;;;;46.05;14.38;;;;;;;13.76;100.00;100959.88;5191284;28;20522;-84
2021/08/01 04:27:47;;;;;;;48.15;15.52;;;;;;;13.71;100.00;100952.34;5209288;28;20113;-84
2021/08/01 04:30:17;;;;;;;45.90;14.73;;;;;;;13.72;100.00;100956.69;5210078;28;20490;-84
2021/08/01 04:32:48;;;;;;;39.63;13.82;;;;;;;13.67;100.00;100952.88;5209408;28;20025;-84
2021/08/01 04:35:18;;;;;;;47.83;13.82;;;;;;;13.70;100.00;100958.75;5209353;28;20083;-84
2021/08/01 04:37:49;;;;;;;43.90;14.10;;;;;;;13.68;100.00;100952.69;5209414;28;20026;-84
2021/08/01 04:40:20;;;;;;;36.78;13.43;;;;;;;13.72;100.00;100955.88;5209280;28;20034;-84
2021/08/01 04:42:50;;;;;;;43.25;14.52;;;;;;;13.78;100.00;100956.97;5209109;28;20479;-84
2021/08/01 04:45:21;;;;;;;43.30;14.70;;;;;;;13.70;100.00;100958.75;5209093;28;20033;-83
2021/08/01 04:47:51;;;;;;;35.00;13.23;;;;;;;13.70;100.00;100950.66;5205630;28;20018;-84
2021/08/01 04:50:22;;;;;;;42.55;15.25;;;;;;;13.73;100.00;100954.84;5205841;28;20033;-84
2021/08/01 04:52:52;;;;;;;36.53;13.57;;;;;;;13.74;100.00;100949.25;5205732;28;20079;-84
2021/08/01 04:55:24;;;;;;;43.42;15.18;;;;;;;13.67;100.00;100958.28;5205749;28;20037;-84
2021/08/01 04:57:54;;;;;;;47.50;15.32;;;;;;;13.71;100.00;100963.13;5205408;28;20087;-84
2021/08/01 05:00:24;;;;;;;40.35;14.43;;;;;;;13.75;100.00;100963.56;5205397;28;20068;-84
2021/08/01 05:02:59;;;;;;;40.80;14.90;;;;;;;13.73;100.00;100961.06;5199731;28;20025;-84
2021/08/01 05:05:37;;;;;;;38.13;14.10;;;;;;;13.77;100.00;100960.72;5205215;28;20017;-84
2021/08/01 05:08:07;;;;;;;44.05;14.43;;;;;;;13.79;100.00;100955.94;5205573;28;20352;-84
2021/08/01 05:10:38;;;;;;;47.40;15.32;;;;;;;13.84;100.00;100972.41;5204628;28;20024;-84
2021/08/01 05:13:08;;;;;;;53.78;16.13;;;;;;;13.82;100.00;100963.69;5205198;28;20048;-84
2021/08/01 05:15:40;;;;;;;47.03;15.80;;;;;;;13.81;100.00;100962.84;5206524;28;20024;-84
2021/08/01 05:18:11;;;;;;;48.85;15.85;;;;;;;13.90;100.00;100963.59;5207778;28;20057;-84
2021/08/01 05:20:42;;;;;;;49.67;16.08;;;;;;;13.93;100.00;100961.34;5207493;28;20441;-84
2021/08/01 05:23:13;;;;;;;52.50;16.38;;;;;;;13.89;100.00;100954.66;5206668;28;20224;-84
2021/08/01 05:25:44;;;;;;;61.30;17.48;;;;;;;13.92;100.00;100951.59;5205583;28;20033;-84
2021/08/01 05:28:14;;;;;;;54.15;17.48;;;;;;;13.95;100.00;100953.91;5205823;28;20022;-84
2021/08/01 05:30:45;;;;;;;48.35;16.20;;;;;;;13.97;100.00;100951.88;5204895;28;20033;-84
2021/08/01 05:33:16;;;;;;;50.67;17.33;;;;;;;13.93;100.00;100958.66;5205124;28;20078;-84
2021/08/01 05:35:46;;;;;;;59.75;17.08;;;;;;;14.00;100.00;100947.97;5204935;28;20021;-84
2021/08/01 05:38:16;;;;;;;49.03;15.68;;;;;;;13.99;100.00;100959.78;5205513;28;20065;-84
2021/08/01 05:40:47;;;;;;;52.33;16.40;;;;;;;14.09;100.00;100963.03;5205405;28;20037;-84
2021/08/01 05:43:17;;;;;;;45.70;15.43;;;;;;;14.07;100.00;100965.09;5206378;28;20102;-84
2021/08/01 05:45:48;;;;;;;50.20;15.63;;;;;;;14.18;100.00;100964.63;5205601;28;20045;-84
2021/08/01 05:48:18;;;;;;;46.95;16.42;;;;;;;14.19;100.00;100968.16;5206160;28;20067;-84
2021/08/01 05:50:50;;;;;;;41.42;15.40;;;;;;;14.23;100.00;100962.19;5204744;28;20059;-83
2021/08/01 05:53:21;;;;;;;49.38;15.57;;;;;;;14.27;100.00;100957.28;5204461;28;20068;-84
2021/08/01 05:55:52;;;;;;;43.75;14.38;;;;;;;14.28;100.00;100956.22;5204962;28;20029;-84
2021/08/01 05:58:22;;;;;;;43.65;15.90;;;;;;;14.30;100.00;100956.88;5204477;28;20095;-85
2021/08/01 06:00:54;;;;;;;49.83;15.20;;;;;;;14.22;100.00;100952.44;5204193;28;20032;-84
2021/08/01 06:03:24;;;;;;;63.33;16.33;;;;;;;14.31;100.00;100958.56;5204156;28;20120;-84
2021/08/01 06:05:55;;;;;;;46.60;15.75;;;;;;;14.41;100.00;100955.59;5204012;28;20116;-84
2021/08/01 06:08:25;;;;;;;50.70;15.68;;;;;;;14.42;100.00;100963.47;5204279;28;20049;-84
2021/08/01 06:10:55;;;;;;;46.83;15.55;;;;;;;14.43;100.00;100956.22;5204585;28;20080;-84
2021/08/01 06:13:26;;;;;;;49.58;15.05;;;;;;;14.52;100.00;100956.97;5203735;28;20102;-84
2021/08/01 06:15:56;;;;;;;49.95;14.63;;;;;;;14.56;100.00;100956.41;5204135;28;20136;-84
2021/08/01 06:18:27;;;;;;;41.88;16.35;;;;;;;14.60;100.00;100963.09;5204342;28;20022;-83
2021/08/01 06:21:10;;;;;;;47.10;15.13;;;;;;;14.56;100.00;100961.81;5203814;28;20514;-83
2021/08/01 06:23:43;;;;;;;58.95;16.02;;;;;;;14.58;100.00;100959.75;5203729;28;20041;-83
2021/08/01 06:26:14;;;;;;;58.47;15.65;;;;;;;14.64;100.00;100960.84;5204155;28;20386;-84
2021/08/01 06:28:45;;;;;;;40.33;15.40;;;;;;;14.72;100.00;100966.16;5204186;28;20021;-84
2021/08/01 06:31:16;;;;;;;43.47;15.65;;;;;;;14.71;100.00;100959.91;5204022;28;20080;-84
2021/08/01 06:33:46;;;;;;;41.85;15.30;;;;;;;14.76;100.00;100968.28;5203713;28;20075;-83
2021/08/01 06:36:17;;;;;;;51.65;15.85;;;;;;;14.83;100.00;100957.53;5203626;28;20022;-84
2021/08/01 06:38:47;;;;;;;39.03;14.75;;;;;;;14.93;100.00;100962.63;5204062;28;20857;-83
2021/08/01 06:41:18;;;;;;;52.17;17.27;;;;;;;15.00;100.00;100953.56;5194958;28;20033;-84
2021/08/01 06:43:49;;;;;;;43.50;15.95;;;;;;;15.07;100.00;100953.63;5200367;28;20197;-84
2021/08/01 06:46:19;;;;;;;50.03;16.77;;;;;;;15.14;100.00;100957.22;5202844;28;20032;-84
2021/08/01 06:48:50;;;;;;;48.38;16.10;;;;;;;15.18;100.00;100958.53;5189096;28;20129;-84
2021/08/01 06:51:20;;;;;;;47.65;17.38;;;;;;;15.15;100.00;100958.91;5202704;28;20037;-85
2021/08/01 06:53:51;;;;;;;49.70;15.27;;;;;;;15.14;100.00;100962.63;5202887;28;20032;-84
2021/08/01 06:56:21;;;;;;;42.55;15.93;;;;;;;15.14;100.00;100962.63;5207067;28;20112;-84
2021/08/01 06:58:52;;;;;;;42.88;16.65;;;;;;;15.16;100.00;100963.28;5206126;28;20129;-84
2021/08/01 07:01:22;;;;;;;44.88;17.73;;;;;;;15.23;100.00;100958.78;5205866;28;20049;-84
2021/08/01 07:03:53;;;;;;;45.28;16.33;;;;;;;15.25;100.00;100972.91;5206599;28;20122;-84
2021/08/01 07:06:23;;;;;;;45.15;16.77;;;;;;;15.26;100.00;100963.81;5202341;28;20028;-84
2021/08/01 07:08:53;;;;;;;56.30;17.58;;;;;;;15.35;100.00;100969.06;5206703;28;20112;-84
2021/08/01 07:11:24;;;;;;;52.72;17.38;;;;;;;15.49;100.00;100962.72;5206358;28;20029;-84
2021/08/01 07:13:55;;;;;;;55.65;18.58;;;;;;;15.67;100.00;100968.53;5206606;28;20151;-84
2021/08/01 07:16:25;;;;;;;52.63;16.80;;;;;;;15.62;100.00;100965.56;5207424;28;20547;-84
2021/08/01 07:18:56;;;;;;;43.05;15.90;;;;;;;15.76;100.00;100971.91;5207613;28;20498;-84
2021/08/01 07:21:26;;;;;;;44.20;17.20;;;;;;;16.01;100.00;100978.56;5206601;28;20509;-84
2021/08/01 07:23:56;;;;;;;44.88;16.30;;;;;;;16.05;100.00;100978.97;5186093;28;20027;-84
2021/08/01 07:26:28;;;;;;;50.97;17.65;;;;;;;16.29;100.00;100972.25;5200389;28;20025;-84
2021/08/01 07:28:58;;;;;;;42.70;17.25;;;;;;;16.28;100.00;100973.28;5207535;28;20032;-84
2021/08/01 07:31:29;;;;;;;48.08;16.98;;;;;;;16.31;100.00;100976.44;5207162;28;20025;-84
2021/08/01 07:34:00;;;;;;;38.03;15.48;;;;;;;16.38;100.00;100975.63;5211232;28;20025;-82
2021/08/01 07:36:30;;;;;;;39.90;17.40;;;;;;;16.61;100.00;100975.28;5210898;28;20029;-83
2021/08/01 07:39:01;;;;;;;43.17;15.57;;;;;;;16.59;100.00;100975.50;5210811;28;20025;-83
2021/08/01 07:41:31;;;;;;;37.00;16.65;;;;;;;16.67;100.00;100975.34;5211528;28;20029;-84
2021/08/01 07:44:02;;;;;;;46.20;15.65;;;;;;;16.72;100.00;100983.72;5210964;28;20086;-83
2021/08/01 07:46:32;;;;;;;36.67;15.77;;;;;;;16.76;100.00;100976.00;5211867;28;20061;-84
2021/08/01 07:49:03;;;;;;;43.35;16.60;;;;;;;16.90;100.00;100974.16;5210597;28;20025;-84
2021/08/01 07:51:33;;;;;;;42.20;17.45;;;;;;;16.72;100.00;100978.31;5210075;28;20501;-83
2021/08/01 07:54:04;;;;;;;42.20;17.17;;;;;;;16.79;100.00;100970.19;5210621;28;20056;-83
2021/08/01 07:56:35;;;;;;;39.78;17.15;;;;;;;16.91;100.00;100979.38;5210909;28;20079;-84
2021/08/01 07:59:06;;;;;;;42.05;18.20;;;;;;;16.78;100.00;100973.94;5210957;28;20029;-83
2021/08/01 08:01:36;;;;;;;36.28;16.88;;;;;;;16.91;100.00;100978.53;5211058;28;20021;-84
2021/08/01 08:04:07;;;;;;;38.28;16.42;;;;;;;17.12;100.00;100975.69;5197048;28;20010;-84
2021/08/01 08:06:37;;;;;;;36.53;16.88;;;;;;;17.34;100.00;100981.75;5202306;28;20029;-83
2021/08/01 08:09:08;;;;;;;38.15;15.90;;;;;;;17.46;100.00;100976.53;5205108;28;20025;-83
2021/08/01 08:11:38;;;;;;;37.28;16.13;;;;;;;17.43;100.00;100974.25;5210549;28;20608;-83
2021/08/01 08:14:09;;;;;;;40.08;16.23;;;;;;;17.45;100.00;100981.13;5210183;28;20370;-83
2021/08/01 08:16:39;;;;;;;34.42;14.05;;;;;;;17.58;100.00;100975.72;5211252;28;20017;-85
2021/08/01 08:19:10;;;;;;;39.90;15.30;;;;;;;17.40;100.00;100982.78;5209318;28;20029;-83
2021/08/01 08:21:40;;;;;;;29.65;15.18;;;;;;;17.29;100.00;100982.38;5209951;28;20030;-83
2021/08/01 08:24:11;;;;;;;38.75;16.77;;;;;;;17.40;100.00;100988.22;5203964;28;20394;-84
2021/08/01 08:26:41;;;;;;;32.50;16.17;;;;;;;17.48;100.00;100990.75;5201729;28;20025;-83
2021/08/01 08:29:12;;;;;;;35.75;16.38;;;;;;;17.41;100.00;100990.72;5208258;28;20018;-84
2021/08/01 08:31:49;;;;;;;37.33;16.33;;;;;;;17.43;100.00;100987.81;5207707;28;20017;-84
2021/08/01 08:34:21;;;;;;;35.70;16.85;;;;;;;17.51;100.00;100983.00;5208111;28;20095;-84
2021/08/01 08:36:53;;;;;;;31.70;16.42;;;;;;;17.92;100.00;100991.97;5208657;28;20108;-84
2021/08/01 08:39:24;;;;;;;30.75;15.85;;;;;;;18.02;100.00;100989.66;5206243;28;20440;-83
2021/08/01 08:41:59;;;;;;;30.45;17.88;;;;;;;18.05;100.00;100989.25;5205776;28;20033;-83
2021/08/01 08:44:29;;;;;;;27.33;14.75;;;;;;;18.44;100.00;100995.63;5205541;28;20116;-83
2021/08/01 08:47:00;;;;;;;28.27;14.30;;;;;;;18.72;100.00;100988.00;5206665;28;20117;-84
2021/08/01 08:49:36;;;;;;;27.00;15.32;;;;;;;18.78;100.00;100987.16;5206395;28;20035;-83
2021/08/01 08:52:07;;;;;;;26.10;14.13;;;;;;;18.97;100.00;100992.69;5205829;28;20060;-83
2021/08/01 08:54:44;;;;;;;36.05;15.15;;;;;;;19.03;100.00;100998.09;5206403;28;20056;-83
2021/08/01 08:57:21;;;;;;;31.00;14.52;;;;;;;19.05;100.00;100992.44;5206230;28;20030;-83
2021/08/01 08:59:59;;;;;;;29.17;15.07;;;;;;;18.92;100.00;100998.78;5187556;28;20022;-84
2021/08/01 09:02:30;;;;;;;33.63;16.80;;;;;;;18.88;100.00;100992.97;5204324;28;20363;-83
2021/08/01 09:05:02;;;;;;;31.58;17.27;;;;;;;18.96;100.00;100991.03;5192905;28;20115;-83
2021/08/01 09:07:33;;;;;;;27.40;15.68;;;;;;;19.32;100.00;100988.47;5204928;28;20033;-83
2021/08/01 09:10:05;;;;;;;29.60;16.80;;;;;;;19.51;100.00;100983.09;5205322;28;20033;-84
2021/08/01 09:12:41;;;;;;;31.85;16.63;;;;;;;19.54;100.00;100993.56;5203895;28;20060;-83
2021/08/01 09:15:14;;;;;;;27.35;15.18;;;;;;;19.52;100.00;100993.75;5204449;28;20080;-84
2021/08/01 09:17:45;;;;;;;37.83;16.23;;;;;;;19.20;100.00;100987.53;5204853;28;20398;-84
2021/08/01 09:20:25;;;;;;;29.52;16.45;;;;;;;19.07;100.00;100983.00;5204065;28;20474;-84
2021/08/01 09:22:59;;;;;;;32.97;16.65;;;;;;;19.22;100.00;100987.28;5190756;28;20399;-84
2021/08/01 09:25:35;;;;;;;28.03;15.27;;;;;;;19.34;100.00;100986.38;5204308;28;20501;-84
2021/08/01 09:28:07;;;;;;;23.27;13.20;;;;;;;19.73;100.00;100991.75;5204151;28;20280;-84
2021/08/01 09:30:43;;;;;;;28.92;15.27;;;;;;;20.03;100.00;100997.31;5203707;28;20075;-84
2021/08/01 09:33:18;;;;;;;24.42;13.50;;;;;;;20.06;100.00;100997.72;5203402;28;20132;-83
2021/08/01 09:36:03;;;;;;;24.55;13.43;;;;;;;20.05;100.00;100990.59;5205897;28;20387;-83
2021/08/01 09:38:46;;;;;;;22.00;12.82;;;;;;;19.84;100.00;100999.19;5206669;28;20025;-83
2021/08/01 09:41:19;;;;;;;20.30;11.57;;;;;;;19.85;100.00;100993.53;5206392;28;20381;-83
2021/08/01 09:43:55;;;;;;;17.67;10.13;;;;;;;20.08;100.00;100994.75;5205569;28;20048;-84
2021/08/01 09:46:42;;;;;;;16.52;9.77;;;;;;;20.54;100.00;100990.72;5204909;28;20034;-82
2021/08/01 09:49:15;;;;;;;21.17;12.20;;;;;;;20.98;100.00;101002.28;5205396;28;20034;-83
2021/08/01 09:51:49;;;;;;;17.63;10.30;;;;;;;21.05;100.00;101000.31;5204608;28;20029;-83
2021/08/01 09:54:22;;;;;;;16.02;9.85;;;;;;;20.87;100.00;100995.72;5204785;28;20032;-83
2021/08/01 09:56:58;;;;;;;19.58;9.90;;;;;;;21.00;100.00;101001.00;5204726;28;20021;-83
2021/08/01 09:59:30;;;;;;;19.40;9.23;;;;;;;20.80;100.00;100997.72;5204360;28;20041;-82
2021/08/01 10:02:03;;;;;;;16.90;9.85;;;;;;;20.80;100.00;100984.94;5203999;28;20336;-83
2021/08/01 10:04:38;;;;;;;14.25;8.32;;;;;;;20.85;100.00;100984.22;5190932;28;20033;-83
2021/08/01 10:07:16;;;;;;;14.55;7.65;;;;;;;20.92;100.00;100985.78;5205206;28;20056;-84
2021/08/01 10:09:48;;;;;;;21.02;7.97;;;;;;;20.86;100.00;100997.63;5192046;28;20100;-82
2021/08/01 10:12:18;;;;;;;13.15;8.25;;;;;;;20.14;100.00;101000.16;5204180;28;20112;-84
2021/08/01 10:14:49;;;;;;;22.30;9.68;;;;;;;19.59;100.00;100993.72;5204006;28;20116;-83
2021/08/01 10:17:22;;;;;;;14.77;9.93;;;;;;;19.50;100.00;100995.06;5204648;28;20028;-84
2021/08/01 10:19:52;;;;;;;16.15;9.60;;;;;;;19.69;100.00;100987.81;5204072;28;20037;-84
2021/08/01 10:22:23;;;;;;;18.52;11.05;;;;;;;19.58;100.00;100978.47;5204092;28;20026;-83
2021/08/01 10:24:59;;;;;;;20.92;11.73;;;;;;;19.88;100.00;100986.78;5204190;28;20033;-83
2021/08/01 10:27:33;;;;;;;19.15;11.55;;;;;;;20.12;100.00;100985.06;5203421;28;20057;-83
2021/08/01 10:30:04;;;;;;;19.58;11.13;;;;;;;20.41;100.00;100978.03;5186165;28;20025;-83
2021/08/01 10:32:38;;;;;;;21.05;11.40;;;;;;;20.68;100.00;100976.69;5203616;28;20459;-83
2021/08/01 10:35:15;;;;;;;15.25;10.48;;;;;;;20.96;100.00;100980.72;5203488;28;20033;-85
2021/08/01 10:37:56;;;;;;;22.17;10.73;;;;;;;21.48;100.00;100983.72;5203285;28;20136;-84
2021/08/01 10:40:29;;;;;;;19.23;10.77;;;;;;;21.91;100.00;100980.66;5185412;28;20018;-84
2021/08/01 10:43:04;;;;;;;13.02;8.75;;;;;;;22.09;100.00;100979.72;5203012;28;20382;-84
2021/08/01 10:45:36;;;;;;;19.52;8.95;;;;;;;22.19;100.00;100973.69;5202808;28;20087;-84
2021/08/01 10:48:07;;;;;;;14.27;8.88;;;;;;;22.42;100.00;100970.06;5202750;28;20022;-84
2021/08/01 10:50:38;;;;;;;11.32;7.82;;;;;;;22.33;100.00;100975.06;5202703;28;20033;-83
2021/08/01 10:53:23;;;;;;;12.05;6.22;;;;;;;22.31;100.00;101010.00;5199036;28;20189;-84
2021/08/01 10:56:14;;;;;;;3.37;1.97;;;;;;;21.24;100.00;101009.28;5195412;28;20037;-83
2021/08/01 10:58:45;;;;;;;2.38;1.48;;;;;;;19.74;100.00;101013.31;5192232;28;20335;-83
2021/08/01 11:01:16;;;;;;;3.67;1.25;;;;;;;19.01;100.00;101005.63;5202855;28;20018;-82
2021/08/01 11:03:46;;;;;;;3.00;1.50;;;;;;;18.10;100.00;101008.47;5203309;28;20091;-82
2021/08/01 11:06:35;;;;;;;3.92;1.65;;;;;;;17.27;100.00;101000.72;5202854;28;20029;-82
2021/08/01 11:09:09;;;;;;;4.70;1.73;;;;;;;16.89;100.00;100996.88;5206194;28;20124;-82
2021/08/01 11:11:44;;;;;;;2.63;1.70;;;;;;;16.86;100.00;100991.88;5207064;28;20028;-81
2021/08/01 11:14:45;;;;;;;7.82;2.58;;;;;;;16.69;100.00;100999.50;5206970;28;20402;-83
2021/08/01 11:17:17;;;;;;;4.82;2.08;;;;;;;16.66;100.00;101005.31;5206347;28;20024;-83
2021/08/01 11:19:49;;;;;;;4.38;2.20;;;;;;;16.58;100.00;101004.47;5206714;28;20067;-83
2021/08/01 11:22:38;;;;;;;4.15;2.30;;;;;;;16.56;100.00;101002.97;5205941;28;20017;-83
2021/08/01 11:25:36;;;;;;;4.80;2.50;;;;;;;16.72;100.00;101020.81;5189078;28;20034;-83
2021/08/01 11:28:13;;;;;;;3.30;2.40;;;;;;;16.81;100.00;101027.69;5196792;28;20022;-83